Time;durP1;ratioP1;P1;durP2;ratioP2;P2;SDS_P1;SDS_P2;PMS_P1;PMS_P2;Temp;Humidity;BMP_temperature;BMP_pressure;BME280_temperature;BME280_humidity;BME280_pressure;Samples;Min_cycle;Max_cycle;Signal;HPM_P1;HPM_P2
2022/03/13 00:01:51;;;;;;;22.05;15.60;;;8.50;99.90;;;;;;4986483;28;20466;-68
2022/03/13 00:04:18;;;;;;;21.98;15.90;;;8.50;99.90;;;;;;4986569;28;20050;-68
2022/03/13 00:06:46;;;;;;;23.67;16.33;;;8.50;99.90;;;;;;4991073;28;20046;-68
2022/03/13 00:09:14;;;;;;;22.40;16.40;;;8.60;99.90;;;;;;4986313;28;20043;-69
2022/03/13 00:11:40;;;;;;;22.98;16.85;;;8.70;99.90;;;;;;4986059;28;20073;-69
2022/03/13 00:14:06;;;;;;;25.05;17.05;;;8.70;99.90;;;;;;4985004;28;20046;-68
2022/03/13 00:16:33;;;;;;;24.55;17.80;;;8.70;99.90;;;;;;4985673;28;20046;-68
2022/03/13 00:18:59;;;;;;;25.55;18.40;;;8.60;99.90;;;;;;4986162;28;20065;-67
2022/03/13 00:21:25;;;;;;;26.50;18.48;;;8.60;99.90;;;;;;4986836;28;20043;-67
2022/03/13 00:23:51;;;;;;;23.02;17.05;;;8.60;99.90;;;;;;4976972;28;20050;-67
2022/03/13 00:26:17;;;;;;;25.50;18.05;;;8.50;99.90;;;;;;4986314;28;20050;-68
2022/03/13 00:28:45;;;;;;;23.10;16.33;;;8.50;99.90;;;;;;4989656;28;20061;-67
2022/03/13 00:31:11;;;;;;;25.70;17.88;;;8.50;99.90;;;;;;4986978;28;20043;-67
2022/03/13 00:33:37;;;;;;;23.83;17.05;;;8.50;99.90;;;;;;4988562;28;20054;-67
2022/03/13 00:36:03;;;;;;;22.17;16.73;;;8.50;99.90;;;;;;4984497;28;20055;-68
2022/03/13 00:38:30;;;;;;;25.30;16.42;;;8.50;99.90;;;;;;4984736;28;20447;-67
2022/03/13 00:40:57;;;;;;;25.23;17.13;;;8.50;99.90;;;;;;4985421;28;20074;-68
2022/03/13 00:43:25;;;;;;;23.58;17.80;;;8.50;99.90;;;;;;4983456;28;20106;-67
2022/03/13 00:45:52;;;;;;;21.67;15.77;;;8.50;99.90;;;;;;4986106;28;20050;-68
2022/03/13 00:48:18;;;;;;;21.77;16.60;;;8.40;99.90;;;;;;4990348;28;20047;-68
2022/03/13 00:50:45;;;;;;;24.85;16.63;;;8.40;99.90;;;;;;4988325;28;20051;-68
2022/03/13 00:53:11;;;;;;;24.60;17.50;;;8.40;99.90;;;;;;4984600;28;20061;-68
2022/03/13 00:55:37;;;;;;;24.38;16.90;;;8.50;99.90;;;;;;4984905;28;20062;-68
2022/03/13 00:58:03;;;;;;;21.90;16.13;;;8.30;99.90;;;;;;4983411;28;20039;-68
2022/03/13 01:00:29;;;;;;;22.65;16.67;;;8.30;99.90;;;;;;4985753;28;20050;-68
2022/03/13 01:02:55;;;;;;;25.45;16.92;;;8.30;99.90;;;;;;4987087;28;20046;-68
2022/03/13 01:05:23;;;;;;;25.77;17.52;;;8.30;99.90;;;;;;4988660;28;20133;-68
2022/03/13 01:07:59;;;;;;;22.52;16.70;;;8.20;99.90;;;;;;4989753;28;20054;-67
2022/03/13 01:10:26;;;;;;;24.83;17.15;;;8.20;99.90;;;;;;4987727;28;20078;-68
2022/03/13 01:12:52;;;;;;;24.92;17.27;;;8.10;99.90;;;;;;4987296;28;20729;-68
2022/03/13 01:15:19;;;;;;;22.88;16.55;;;8.10;99.90;;;;;;4988661;28;20039;-68
2022/03/13 01:17:45;;;;;;;22.40;16.80;;;8.00;99.90;;;;;;4984592;28;20058;-68
2022/03/13 01:20:17;;;;;;;25.00;17.25;;;7.90;99.90;;;;;;4984503;28;20074;-67
2022/03/13 01:22:43;;;;;;;23.05;16.23;;;8.00;99.90;;;;;;4989032;28;20134;-68
2022/03/13 01:25:09;;;;;;;23.20;16.50;;;7.90;99.90;;;;;;4988806;28;20137;-67
2022/03/13 01:27:35;;;;;;;24.30;16.73;;;8.10;99.90;;;;;;4989767;28;20057;-68
2022/03/13 01:30:03;;;;;;;23.77;17.15;;;8.10;99.90;;;;;;4986113;28;20047;-68
2022/03/13 01:32:30;;;;;;;26.02;17.88;;;8.10;99.90;;;;;;4986866;28;20106;-68
2022/03/13 01:34:56;;;;;;;21.52;16.48;;;8.20;99.90;;;;;;4989999;28;20130;-68
2022/03/13 01:37:38;;;;;;;22.58;16.42;;;8.10;99.90;;;;;;4988494;28;20054;-68
2022/03/13 01:40:10;;;;;;;23.23;17.65;;;8.10;99.90;;;;;;4992405;28;20054;-68
2022/03/13 01:42:36;;;;;;;23.65;17.50;;;8.10;99.90;;;;;;4992905;28;20046;-68
2022/03/13 01:45:04;;;;;;;23.27;17.85;;;8.20;99.90;;;;;;4990232;28;20077;-68
2022/03/13 01:47:29;;;;;;;29.38;18.17;;;8.20;99.90;;;;;;4990333;28;20045;-68
2022/03/13 01:49:55;;;;;;;22.55;16.70;;;8.30;99.90;;;;;;4987219;28;20074;-68
2022/03/13 01:52:26;;;;;;;22.00;16.67;;;8.40;99.90;;;;;;4988748;28;20074;-68
2022/03/13 01:54:53;;;;;;;24.98;17.63;;;8.40;99.90;;;;;;4989344;28;20125;-68
2022/03/13 01:57:20;;;;;;;24.52;18.27;;;8.30;99.90;;;;;;4987522;28;20133;-68
2022/03/13 01:59:52;;;;;;;23.90;17.63;;;8.40;99.90;;;;;;4988612;28;20136;-68
2022/03/13 02:02:20;;;;;;;23.80;17.42;;;8.30;99.90;;;;;;4987909;28;20043;-68
2022/03/13 02:04:54;;;;;;;23.10;17.65;;;8.40;99.90;;;;;;4987194;28;20087;-68
2022/03/13 02:07:26;;;;;;;21.95;16.95;;;8.50;99.90;;;;;;4987514;28;20109;-68
2022/03/13 02:09:52;;;;;;;25.83;18.08;;;8.40;99.90;;;;;;4986063;28;20042;-68
2022/03/13 02:12:19;;;;;;;23.33;16.98;;;8.30;99.90;;;;;;4985688;28;20065;-68
2022/03/13 02:14:46;;;;;;;25.60;17.88;;;8.40;99.90;;;;;;4989827;28;20058;-68
2022/03/13 02:17:12;;;;;;;25.30;17.67;;;8.40;99.90;;;;;;4987237;28;20070;-69
2022/03/13 02:19:38;;;;;;;22.70;17.77;;;8.40;99.90;;;;;;4973973;28;20082;-67
2022/03/13 02:22:04;;;;;;;23.30;16.95;;;8.30;99.90;;;;;;4988880;28;20058;-67
2022/03/13 02:24:30;;;;;;;22.60;16.60;;;8.40;99.90;;;;;;4991587;28;20074;-67
2022/03/13 02:26:59;;;;;;;24.88;17.77;;;8.40;99.90;;;;;;4988286;28;20043;-68
2022/03/13 02:29:26;;;;;;;25.10;18.00;;;8.30;99.90;;;;;;4989206;28;20051;-68
2022/03/13 02:31:51;;;;;;;27.30;18.95;;;8.30;99.90;;;;;;4987767;28;20039;-68
2022/03/13 02:34:18;;;;;;;23.48;17.83;;;8.30;99.90;;;;;;4989873;28;20434;-68
2022/03/13 02:36:47;;;;;;;25.08;17.77;;;8.30;99.90;;;;;;4987547;28;20079;-68
2022/03/13 02:39:12;;;;;;;25.75;17.85;;;8.30;99.90;;;;;;4990157;28;20054;-68
2022/03/13 02:41:40;;;;;;;25.77;18.98;;;8.20;99.90;;;;;;4990463;28;20530;-68
2022/03/13 02:44:11;;;;;;;21.88;16.70;;;8.20;99.90;;;;;;4990590;28;20118;-68
2022/03/13 02:46:46;;;;;;;23.15;18.40;;;8.20;99.90;;;;;;4990861;28;20047;-68
2022/03/13 02:49:18;;;;;;;21.33;16.63;;;8.20;99.90;;;;;;4989168;28;20048;-68
2022/03/13 02:51:45;;;;;;;25.85;18.20;;;8.30;99.90;;;;;;4988292;28;20051;-68
2022/03/13 02:54:13;;;;;;;24.55;17.00;;;8.30;99.90;;;;;;4991487;28;20061;-68
2022/03/13 02:56:39;;;;;;;23.75;17.77;;;8.20;99.90;;;;;;4986641;28;20050;-68
2022/03/13 02:59:04;;;;;;;23.00;16.73;;;8.20;99.90;;;;;;4987330;28;20046;-67
2022/03/13 03:01:31;;;;;;;22.75;15.77;;;8.20;99.90;;;;;;4990622;28;20050;-68
2022/03/13 03:03:58;;;;;;;22.02;16.77;;;8.10;99.90;;;;;;4991309;28;20034;-68
2022/03/13 03:06:25;;;;;;;23.98;18.08;;;8.10;99.90;;;;;;4987568;28;20392;-68
2022/03/13 03:08:51;;;;;;;24.63;17.23;;;8.10;99.90;;;;;;4992120;28;20106;-68
2022/03/13 03:11:17;;;;;;;21.83;16.83;;;8.00;99.90;;;;;;4991180;28;20045;-68
2022/03/13 03:13:43;;;;;;;22.77;16.48;;;7.90;99.90;;;;;;4987978;28;20042;-69
2022/03/13 03:16:08;;;;;;;23.55;17.13;;;8.10;99.90;;;;;;4988402;28;20059;-68
2022/03/13 03:18:34;;;;;;;22.98;16.35;;;7.90;99.90;;;;;;4993936;28;20115;-68
2022/03/13 03:21:00;;;;;;;21.92;15.80;;;8.00;99.90;;;;;;4986366;28;20058;-68
2022/03/13 03:23:25;;;;;;;25.35;17.42;;;7.90;99.90;;;;;;4988166;28;20038;-68
2022/03/13 03:25:51;;;;;;;23.88;17.02;;;8.00;99.90;;;;;;4988070;28;20102;-68
2022/03/13 03:28:18;;;;;;;23.23;16.15;;;7.80;99.90;;;;;;4990409;28;20050;-68
2022/03/13 03:30:45;;;;;;;26.95;17.45;;;7.80;99.90;;;;;;4988591;28;20061;-69
2022/03/13 03:33:11;;;;;;;25.27;18.33;;;7.80;99.90;;;;;;4991025;28;20049;-69
2022/03/13 03:35:36;;;;;;;22.45;16.85;;;7.60;99.90;;;;;;4990805;28;20057;-69
2022/03/13 03:38:03;;;;;;;22.52;16.98;;;7.60;99.90;;;;;;4987500;28;20102;-68
2022/03/13 03:40:31;;;;;;;23.80;17.48;;;7.60;99.90;;;;;;4986519;28;20097;-68
2022/03/13 03:42:58;;;;;;;22.35;16.27;;;7.50;99.90;;;;;;4987170;28;20050;-68
2022/03/13 03:45:23;;;;;;;24.80;16.42;;;7.50;99.90;;;;;;4986345;28;20046;-68
2022/03/13 03:47:50;;;;;;;23.75;16.48;;;7.40;99.90;;;;;;4987568;28;20455;-68
2022/03/13 03:50:17;;;;;;;21.95;16.48;;;7.50;99.90;;;;;;4989839;28;20042;-68
2022/03/13 03:52:45;;;;;;;22.85;17.38;;;7.50;99.90;;;;;;4985324;28;20142;-68
2022/03/13 03:55:11;;;;;;;23.30;17.60;;;7.50;99.90;;;;;;4984575;28;20058;-68
2022/03/13 03:57:38;;;;;;;23.85;16.88;;;7.50;99.90;;;;;;4985032;28;20055;-68
2022/03/13 04:00:06;;;;;;;23.27;16.58;;;7.40;99.90;;;;;;4985547;28;20446;-68
2022/03/13 04:02:32;;;;;;;23.52;16.45;;;7.30;99.90;;;;;;4986352;28;20050;-68
2022/03/13 04:04:58;;;;;;;21.65;16.55;;;7.30;99.90;;;;;;4994842;28;20052;-68
2022/03/13 04:07:24;;;;;;;21.88;15.70;;;7.20;99.90;;;;;;4987117;28;20051;-68
2022/03/13 04:09:50;;;;;;;21.15;16.60;;;7.10;99.90;;;;;;4987875;28;20050;-68
2022/03/13 04:12:18;;;;;;;22.88;16.38;;;7.10;99.90;;;;;;4989831;28;20053;-68
2022/03/13 04:14:44;;;;;;;22.80;16.30;;;7.20;99.90;;;;;;4987258;28;20102;-68
2022/03/13 04:17:10;;;;;;;21.65;15.48;;;7.10;99.90;;;;;;4986919;28;20050;-68
2022/03/13 04:19:36;;;;;;;23.67;15.98;;;7.00;99.90;;;;;;4987087;28;20047;-68
2022/03/13 04:22:02;;;;;;;20.05;15.23;;;6.90;99.90;;;;;;4988304;28;20114;-68
2022/03/13 04:24:30;;;;;;;20.38;15.30;;;6.90;99.90;;;;;;4984384;28;20126;-68
2022/03/13 04:26:56;;;;;;;22.90;16.10;;;6.80;99.90;;;;;;4988102;28;20046;-68
2022/03/13 04:29:23;;;;;;;23.35;16.83;;;6.80;99.90;;;;;;4988309;28;20046;-68
2022/03/13 04:31:49;;;;;;;23.40;16.65;;;6.70;99.90;;;;;;4989536;28;20062;-68
2022/03/13 04:34:16;;;;;;;23.35;16.35;;;6.60;99.90;;;;;;4992188;28;20458;-69
2022/03/13 04:36:42;;;;;;;24.42;17.25;;;6.50;99.90;;;;;;4985863;28;20047;-68
2022/03/13 04:39:08;;;;;;;22.88;16.98;;;6.50;99.90;;;;;;4984766;28;20243;-69
2022/03/13 04:41:34;;;;;;;22.30;16.33;;;6.30;99.90;;;;;;4984802;28;20110;-68
2022/03/13 04:44:00;;;;;;;20.63;15.73;;;6.30;99.90;;;;;;4983601;28;20061;-69
2022/03/13 04:46:26;;;;;;;23.23;16.63;;;6.10;99.90;;;;;;4985320;28;20451;-69
2022/03/13 04:48:55;;;;;;;22.83;15.88;;;6.10;99.90;;;;;;4985803;28;20043;-69
2022/03/13 04:51:21;;;;;;;22.10;16.52;;;6.00;99.90;;;;;;4981252;28;20063;-69
2022/03/13 04:53:47;;;;;;;25.42;17.23;;;6.00;99.90;;;;;;4986696;28;20093;-69
2022/03/13 04:56:13;;;;;;;23.35;17.52;;;6.00;99.90;;;;;;4971430;28;20050;-69
2022/03/13 04:58:39;;;;;;;22.42;15.98;;;5.90;99.90;;;;;;4983689;28;20043;-69
2022/03/13 05:01:05;;;;;;;25.17;16.10;;;5.90;99.90;;;;;;4985903;28;20047;-69
2022/03/13 05:03:34;;;;;;;25.10;15.30;;;6.00;99.90;;;;;;4993106;28;20042;-69
2022/03/13 05:06:04;;;;;;;24.40;17.45;;;6.00;99.90;;;;;;5003283;28;20113;-69
2022/03/13 05:08:30;;;;;;;22.10;16.48;;;6.10;99.90;;;;;;4982930;28;20051;-69
2022/03/13 05:10:55;;;;;;;22.35;16.15;;;6.10;99.90;;;;;;4988489;28;20046;-69
2022/03/13 05:13:23;;;;;;;22.27;16.70;;;6.00;99.90;;;;;;4987135;28;20130;-69
2022/03/13 05:15:49;;;;;;;32.28;16.65;;;6.00;99.90;;;;;;4989401;28;20059;-69
2022/03/13 05:18:15;;;;;;;21.25;15.95;;;6.10;99.90;;;;;;4988230;28;20045;-69
2022/03/13 05:20:41;;;;;;;22.30;15.57;;;6.20;99.90;;;;;;4989361;28;20055;-68
2022/03/13 05:23:08;;;;;;;23.13;16.08;;;6.30;99.90;;;;;;4994081;28;20054;-69
2022/03/13 05:25:35;;;;;;;22.55;15.85;;;6.20;99.90;;;;;;4993424;28;20105;-69
2022/03/13 05:28:01;;;;;;;22.27;14.57;;;6.30;99.90;;;;;;4987943;28;20038;-69
2022/03/13 05:30:28;;;;;;;22.30;15.77;;;6.30;99.90;;;;;;4988410;28;20051;-68
2022/03/13 05:32:54;;;;;;;23.63;16.13;;;6.30;99.90;;;;;;4992929;28;20057;-68
2022/03/13 05:35:20;;;;;;;26.70;16.08;;;6.30;99.90;;;;;;4989789;28;20062;-68
2022/03/13 05:37:46;;;;;;;23.65;16.50;;;6.30;99.90;;;;;;4988337;28;20042;-68
2022/03/13 05:40:14;;;;;;;22.58;15.52;;;6.10;99.90;;;;;;4972726;28;20384;-69
2022/03/13 05:42:43;;;;;;;22.45;15.43;;;6.10;99.90;;;;;;4988376;28;20073;-69
2022/03/13 05:45:10;;;;;;;23.97;16.80;;;6.00;99.90;;;;;;4990313;28;20066;-69
2022/03/13 05:47:47;;;;;;;22.95;15.73;;;5.90;99.90;;;;;;4994702;28;20049;-69
2022/03/13 05:50:13;;;;;;;24.70;15.68;;;5.90;99.90;;;;;;4988739;28;20081;-69
2022/03/13 05:52:40;;;;;;;22.35;15.73;;;5.80;99.90;;;;;;4990046;28;20091;-69
2022/03/13 05:55:07;;;;;;;25.77;17.13;;;5.70;99.90;;;;;;4988219;28;20092;-69
2022/03/13 05:57:34;;;;;;;23.92;16.58;;;5.70;99.90;;;;;;4994715;28;20038;-69
2022/03/13 06:00:00;;;;;;;21.30;15.27;;;5.70;99.90;;;;;;4982608;28;20130;-69
2022/03/13 06:02:26;;;;;;;26.13;17.38;;;5.60;99.90;;;;;;4987773;28;20105;-69
2022/03/13 06:04:52;;;;;;;27.88;19.13;;;5.70;99.90;;;;;;4985347;28;20078;-69
2022/03/13 06:07:18;;;;;;;24.67;17.95;;;5.80;99.90;;;;;;4985657;28;20044;-69
2022/03/13 06:09:44;;;;;;;22.52;16.02;;;5.80;99.90;;;;;;4992046;28;20053;-69
2022/03/13 06:12:10;;;;;;;25.58;17.10;;;5.70;99.90;;;;;;4976835;28;20065;-69
2022/03/13 06:14:36;;;;;;;22.95;17.40;;;5.70;99.90;;;;;;4987696;28;20115;-69
2022/03/13 06:17:02;;;;;;;26.65;17.60;;;5.70;99.90;;;;;;4987870;28;20050;-69
2022/03/13 06:19:28;;;;;;;23.23;17.35;;;5.70;99.90;;;;;;4990851;28;20085;-69
2022/03/13 06:21:53;;;;;;;25.40;18.13;;;5.70;99.90;;;;;;4986105;28;20066;-69
2022/03/13 06:24:19;;;;;;;24.27;18.35;;;5.80;99.90;;;;;;4990993;28;20053;-69
2022/03/13 06:26:45;;;;;;;23.75;18.30;;;5.70;99.90;;;;;;4986310;28;20047;-69
2022/03/13 06:29:13;;;;;;;24.77;18.08;;;5.70;99.90;;;;;;4989765;28;20043;-69
2022/03/13 06:31:40;;;;;;;22.40;16.73;;;5.70;99.90;;;;;;4993655;28;20051;-69
2022/03/13 06:34:05;;;;;;;20.95;16.05;;;5.70;99.90;;;;;;4988411;28;20101;-69
2022/03/13 06:36:31;;;;;;;25.20;17.60;;;5.70;99.90;;;;;;4991389;28;20166;-69
2022/03/13 06:38:57;;;;;;;24.13;16.48;;;5.70;99.90;;;;;;4989469;28;20567;-69
2022/03/13 06:41:23;;;;;;;23.05;16.05;;;5.80;99.90;;;;;;4988573;28;20058;-69
2022/03/13 06:43:49;;;;;;;22.50;16.65;;;5.80;99.90;;;;;;4985625;28;20074;-68
2022/03/13 06:46:15;;;;;;;22.48;16.17;;;6.00;99.90;;;;;;4986448;28;20419;-69
2022/03/13 06:48:41;;;;;;;21.02;15.57;;;6.00;99.90;;;;;;4985553;28;20034;-69
2022/03/13 06:51:07;;;;;;;22.50;16.67;;;6.00;99.90;;;;;;4987787;28;20077;-69
2022/03/13 06:53:35;;;;;;;21.30;16.67;;;6.00;99.90;;;;;;4991103;28;20066;-69
2022/03/13 06:56:01;;;;;;;26.10;17.65;;;6.10;99.90;;;;;;4991404;28;20105;-69
2022/03/13 06:58:27;;;;;;;22.40;16.25;;;6.10;99.90;;;;;;4984781;28;20097;-69
2022/03/13 07:00:53;;;;;;;23.20;15.50;;;6.10;99.90;;;;;;4984340;28;20042;-68
2022/03/13 07:03:19;;;;;;;25.00;16.92;;;6.20;99.90;;;;;;4992668;28;20043;-69
2022/03/13 07:05:44;;;;;;;23.00;15.55;;;6.20;99.90;;;;;;4992718;28;20066;-68
2022/03/13 07:08:10;;;;;;;22.23;16.08;;;6.20;99.90;;;;;;4990401;28;20065;-69
2022/03/13 07:10:36;;;;;;;23.02;16.08;;;6.30;99.90;;;;;;4987003;28;20454;-69
2022/03/13 07:13:01;;;;;;;24.48;16.77;;;6.30;99.90;;;;;;4973690;28;20056;-69
2022/03/13 07:15:28;;;;;;;22.20;16.95;;;6.30;99.90;;;;;;4987327;28;20563;-69
2022/03/13 07:17:54;;;;;;;20.65;15.15;;;6.20;99.90;;;;;;4989490;28;20073;-69
2022/03/13 07:20:20;;;;;;;23.38;16.17;;;6.20;99.90;;;;;;4991972;28;20061;-71
2022/03/13 07:22:46;;;;;;;24.52;16.98;;;6.30;99.90;;;;;;4997948;28;20038;-71
2022/03/13 07:25:14;;;;;;;22.75;16.80;;;6.30;99.90;;;;;;4973585;28;20050;-71
2022/03/13 07:27:40;;;;;;;24.30;17.38;;;6.30;99.90;;;;;;4986875;28;20046;-71
2022/03/13 07:30:08;;;;;;;20.45;15.15;;;6.40;99.90;;;;;;4989536;28;20065;-71
2022/03/13 07:32:34;;;;;;;21.38;15.52;;;6.40;99.90;;;;;;4986365;28;20101;-69
2022/03/13 07:35:00;;;;;;;21.10;15.98;;;6.40;99.90;;;;;;4987084;28;20043;-69
2022/03/13 07:37:26;;;;;;;22.58;15.95;;;6.40;99.90;;;;;;4984327;28;20400;-69
2022/03/13 07:39:53;;;;;;;21.33;15.52;;;6.40;99.90;;;;;;4992970;28;20456;-68
2022/03/13 07:42:18;;;;;;;22.05;15.25;;;6.50;99.90;;;;;;4995306;28;20046;-69
2022/03/13 07:44:44;;;;;;;19.58;14.80;;;6.60;99.90;;;;;;4988838;28;20048;-67
2022/03/13 07:47:11;;;;;;;22.48;15.35;;;6.60;99.90;;;;;;4988335;28;20050;-68
2022/03/13 07:49:37;;;;;;;20.85;14.90;;;6.60;99.90;;;;;;4985146;28;20043;-70
2022/03/13 07:52:04;;;;;;;21.90;15.38;;;6.70;99.90;;;;;;4986572;28;20094;-69
2022/03/13 07:54:30;;;;;;;20.52;14.90;;;6.70;99.90;;;;;;4986819;28;20055;-68
2022/03/13 07:56:55;;;;;;;18.55;14.00;;;6.80;99.90;;;;;;4990207;28;20126;-67
2022/03/13 07:59:21;;;;;;;19.98;14.90;;;6.90;99.90;;;;;;4986770;28;20134;-68
2022/03/13 08:01:48;;;;;;;20.10;14.77;;;6.90;99.90;;;;;;4986088;28;20043;-69
2022/03/13 08:04:14;;;;;;;24.67;16.20;;;7.10;99.90;;;;;;4989087;28;20039;-68
2022/03/13 08:06:40;;;;;;;24.55;16.88;;;7.20;99.90;;;;;;4984132;28;20083;-68
2022/03/13 08:09:06;;;;;;;20.55;14.27;;;7.20;99.90;;;;;;4985556;28;20039;-68
2022/03/13 08:11:36;;;;;;;21.95;14.38;;;7.20;99.90;;;;;;4986690;28;20134;-68
2022/03/13 08:14:10;;;;;;;19.15;14.02;;;7.30;99.90;;;;;;4986267;28;20079;-68
2022/03/13 08:16:36;;;;;;;21.40;14.88;;;7.40;99.90;;;;;;4988516;28;20050;-67
2022/03/13 08:19:02;;;;;;;21.65;14.25;;;7.40;99.90;;;;;;4988946;28;20045;-68
2022/03/13 08:21:27;;;;;;;20.80;15.70;;;7.50;99.90;;;;;;4981292;28;20073;-67
2022/03/13 08:23:54;;;;;;;18.30;14.57;;;7.60;99.90;;;;;;4985958;28;20089;-67
2022/03/13 08:26:20;;;;;;;17.50;13.95;;;7.60;99.90;;;;;;4984704;28;20081;-67
2022/03/13 08:28:46;;;;;;;18.95;13.82;;;7.70;99.90;;;;;;4991926;28;20400;-67
2022/03/13 08:31:12;;;;;;;19.75;13.50;;;7.70;99.90;;;;;;4986682;28;20047;-67
2022/03/13 08:33:38;;;;;;;22.25;15.25;;;7.80;99.90;;;;;;4984883;28;20152;-68
2022/03/13 08:36:04;;;;;;;21.23;14.52;;;7.90;99.90;;;;;;4985335;28;20059;-70
2022/03/13 08:38:30;;;;;;;19.02;13.32;;;7.90;99.90;;;;;;4979627;28;20145;-70
2022/03/13 08:40:56;;;;;;;20.05;13.63;;;7.90;99.90;;;;;;4995991;28;20069;-69
2022/03/13 08:43:22;;;;;;;17.63;13.68;;;8.00;99.90;;;;;;4988203;28;20042;-69
2022/03/13 08:45:48;;;;;;;19.13;13.75;;;8.10;99.90;;;;;;4990497;28;20047;-69
2022/03/13 08:48:14;;;;;;;21.17;13.30;;;8.20;99.90;;;;;;4989902;28;20043;-70
2022/03/13 08:50:40;;;;;;;17.67;12.70;;;8.30;99.90;;;;;;4991862;28;20090;-70
2022/03/13 08:53:06;;;;;;;18.35;12.93;;;8.30;99.90;;;;;;4975910;28;20047;-70
2022/03/13 08:55:32;;;;;;;19.33;14.27;;;8.50;99.90;;;;;;4987393;28;20058;-68
2022/03/13 08:57:58;;;;;;;17.58;12.85;;;8.50;99.90;;;;;;4988017;28;20051;-69
2022/03/13 09:00:26;;;;;;;19.65;13.77;;;8.50;99.90;;;;;;4996655;28;20100;-68
2022/03/13 09:02:53;;;;;;;18.17;13.43;;;8.70;99.90;;;;;;4983662;28;20045;-68
2022/03/13 09:05:20;;;;;;;19.27;13.88;;;8.80;99.90;;;;;;4999745;28;20096;-71
2022/03/13 09:07:46;;;;;;;19.17;13.68;;;8.90;99.90;;;;;;4993172;28;20098;-70
2022/03/13 09:10:11;;;;;;;17.63;13.15;;;9.10;99.90;;;;;;4997672;28;20062;-72
2022/03/13 09:12:38;;;;;;;18.30;12.40;;;9.20;99.90;;;;;;4991688;28;20122;-72
2022/03/13 09:15:05;;;;;;;17.73;12.80;;;9.40;99.90;;;;;;4989057;28;20051;-72
2022/03/13 09:17:32;;;;;;;19.63;13.02;;;9.50;99.90;;;;;;4987823;28;20061;-71
2022/03/13 09:19:58;;;;;;;18.05;12.98;;;9.60;99.90;;;;;;4994311;28;20030;-73
2022/03/13 09:22:29;;;;;;;20.15;13.10;;;9.80;99.90;;;;;;4976925;28;20054;-73
2022/03/13 09:24:57;;;;;;;18.63;12.32;;;10.10;99.90;;;;;;5001868;28;20081;-72
2022/03/13 09:27:27;;;;;;;17.73;12.77;;;10.30;99.90;;;;;;5001694;28;20046;-72
2022/03/13 09:29:54;;;;;;;17.55;12.15;;;10.40;99.90;;;;;;4996630;28;20046;-71
2022/03/13 09:32:22;;;;;;;18.67;12.70;;;10.40;99.90;;;;;;4995759;28;20057;-71
2022/03/13 09:34:48;;;;;;;17.60;11.98;;;10.50;99.90;;;;;;4996699;28;20438;-71
2022/03/13 09:37:14;;;;;;;14.80;11.90;;;10.60;99.90;;;;;;4990064;28;20051;-72
2022/03/13 09:39:40;;;;;;;19.02;12.80;;;10.70;99.90;;;;;;4987094;28;20108;-72
2022/03/13 09:42:06;;;;;;;19.25;13.30;;;10.70;99.90;;;;;;4992657;28;20622;-72
2022/03/13 09:44:32;;;;;;;18.00;11.98;;;10.80;97.90;;;;;;4987658;28;20051;-72
2022/03/13 09:46:58;;;;;;;16.27;12.23;;;10.90;97.00;;;;;;4990324;28;20130;-72
2022/03/13 09:49:24;;;;;;;19.17;12.57;;;11.00;96.40;;;;;;4987787;28;20082;-72
2022/03/13 09:51:51;;;;;;;17.23;12.25;;;11.00;97.00;;;;;;4990756;28;20046;-73
2022/03/13 09:54:17;;;;;;;17.67;12.50;;;11.00;98.00;;;;;;4987739;28;20051;-72
2022/03/13 09:56:43;;;;;;;19.90;12.85;;;11.10;97.20;;;;;;4988504;28;20053;-71
2022/03/13 09:59:09;;;;;;;17.70;12.45;;;11.30;96.00;;;;;;4988904;28;20244;-71
2022/03/13 10:01:35;;;;;;;18.02;12.95;;;11.50;94.80;;;;;;4984648;28;20066;-71
2022/03/13 10:04:02;;;;;;;17.75;12.90;;;11.70;92.90;;;;;;4989408;28;20082;-70
2022/03/13 10:06:29;;;;;;;16.85;12.80;;;11.70;93.00;;;;;;4987335;28;20070;-71
2022/03/13 10:08:54;;;;;;;20.40;12.43;;;11.60;93.00;;;;;;4988045;28;20042;-71
2022/03/13 10:11:34;;;;;;;17.50;12.77;;;11.70;92.60;;;;;;4989354;28;20042;-71
2022/03/13 10:14:07;;;;;;;19.98;12.52;;;11.60;93.20;;;;;;4987499;28;20125;-70
2022/03/13 10:16:38;;;;;;;15.73;12.25;;;11.70;92.00;;;;;;4985104;28;20544;-71
2022/03/13 10:19:18;;;;;;;19.20;12.88;;;11.80;91.60;;;;;;4987576;28;20051;-71
2022/03/13 10:22:07;;;;;;;19.35;13.30;;;11.80;92.20;;;;;;4986777;28;20042;-70
2022/03/13 10:24:44;;;;;;;16.90;13.10;;;11.70;92.20;;;;;;4988778;28;20050;-70
2022/03/13 10:27:16;;;;;;;18.27;13.10;;;11.70;92.00;;;;;;4985908;28;20051;-70
2022/03/13 10:29:42;;;;;;;17.33;12.80;;;11.70;91.80;;;;;;4988897;28;20063;-70
2022/03/13 10:32:09;;;;;;;18.80;13.32;;;11.70;92.00;;;;;;4988012;28;20054;-70
2022/03/13 10:34:36;;;;;;;17.42;12.55;;;11.70;92.70;;;;;;4985488;28;20061;-70
2022/03/13 10:37:02;;;;;;;17.30;12.63;;;11.60;93.10;;;;;;4988544;28;20479;-70
2022/03/13 10:39:29;;;;;;;16.67;13.00;;;11.60;94.30;;;;;;4991129;28;20046;-71
2022/03/13 10:42:03;;;;;;;18.38;13.18;;;11.60;94.90;;;;;;4970638;28;20057;-70
2022/03/13 10:44:34;;;;;;;18.75;13.10;;;11.60;94.40;;;;;;4973099;28;20039;-71
2022/03/13 10:47:05;;;;;;;16.83;12.25;;;11.70;93.90;;;;;;4985786;28;20107;-71
2022/03/13 10:49:41;;;;;;;19.40;12.45;;;11.80;93.60;;;;;;4990229;28;20066;-71
2022/03/13 10:52:26;;;;;;;17.20;13.00;;;11.80;93.90;;;;;;4986201;28;20175;-71
2022/03/13 10:54:53;;;;;;;20.15;13.68;;;11.80;93.90;;;;;;4989740;28;20094;-71
2022/03/13 10:57:19;;;;;;;18.05;12.82;;;12.00;92.60;;;;;;4984126;28;20053;-71
2022/03/13 11:00:04;;;;;;;20.05;13.68;;;12.10;92.30;;;;;;4984562;28;20042;-71
2022/03/13 11:02:31;;;;;;;17.38;12.70;;;12.10;92.10;;;;;;4991609;28;20103;-71
2022/03/13 11:04:57;;;;;;;18.83;13.38;;;12.20;92.30;;;;;;4992219;28;20053;-71
2022/03/13 11:07:26;;;;;;;18.08;12.90;;;12.20;92.00;;;;;;4988308;28;20047;-71
2022/03/13 11:09:56;;;;;;;17.73;13.10;;;12.20;91.10;;;;;;4985903;28;20039;-71
2022/03/13 11:12:23;;;;;;;16.48;12.82;;;12.30;90.60;;;;;;4983918;28;20392;-71
2022/03/13 11:14:50;;;;;;;19.75;13.25;;;12.20;91.20;;;;;;4987940;28;20073;-71
2022/03/13 11:17:18;;;;;;;19.27;13.23;;;12.20;91.10;;;;;;4989797;28;20066;-71
2022/03/13 11:19:51;;;;;;;18.65;13.30;;;12.20;90.70;;;;;;4987318;28;20050;-71
2022/03/13 11:22:20;;;;;;;21.90;13.65;;;12.20;90.50;;;;;;4989176;28;20082;-71
2022/03/13 11:24:47;;;;;;;17.15;13.27;;;12.30;90.10;;;;;;4987162;28;20139;-71
2022/03/13 11:27:15;;;;;;;20.38;13.80;;;12.40;89.00;;;;;;4987006;28;20130;-71
2022/03/13 11:29:52;;;;;;;20.25;12.52;;;12.50;87.70;;;;;;4991280;28;20062;-71
2022/03/13 11:32:30;;;;;;;17.90;12.30;;;12.50;86.20;;;;;;4985425;28;20051;-71
2022/03/13 11:35:27;;;;;;;17.65;13.40;;;12.60;85.60;;;;;;4985519;28;20050;-71
2022/03/13 11:38:08;;;;;;;20.35;13.85;;;12.60;83.70;;;;;;4990367;28;20070;-71
2022/03/13 11:40:36;;;;;;;18.95;13.15;;;12.80;81.80;;;;;;4990277;28;20055;-70
2022/03/13 11:43:14;;;;;;;16.30;12.65;;;12.90;80.80;;;;;;4986568;28;20066;-71
2022/03/13 11:45:51;;;;;;;17.88;13.05;;;12.90;80.00;;;;;;4988347;28;20046;-70
2022/03/13 11:48:20;;;;;;;17.50;12.20;;;13.10;80.50;;;;;;4983397;28;20050;-70
2022/03/13 11:50:54;;;;;;;17.90;13.02;;;13.20;79.40;;;;;;4984134;28;20047;-70
2022/03/13 11:53:21;;;;;;;18.75;13.77;;;13.30;77.90;;;;;;4984723;28;20054;-70
2022/03/13 11:56:10;;;;;;;18.13;12.90;;;13.50;78.80;;;;;;4988182;28;20058;-70
2022/03/13 11:58:42;;;;;;;19.88;13.15;;;13.70;75.30;;;;;;4979151;28;20122;-70
2022/03/13 12:01:31;;;;;;;17.95;13.02;;;13.80;74.00;;;;;;4987622;28;20055;-70
2022/03/13 12:04:09;;;;;;;19.33;12.77;;;14.10;70.30;;;;;;4991055;28;20046;-70
2022/03/13 12:06:49;;;;;;;18.42;13.85;;;14.30;68.90;;;;;;4987643;28;20050;-70
2022/03/13 12:09:16;;;;;;;16.63;12.88;;;14.50;67.20;;;;;;4978542;28;20057;-71
2022/03/13 12:11:47;;;;;;;17.15;13.00;;;14.50;67.70;;;;;;4985647;28;20047;-71
2022/03/13 12:14:15;;;;;;;18.10;12.65;;;14.60;65.20;;;;;;4981413;28;20043;-70
2022/03/13 12:16:43;;;;;;;18.65;13.25;;;14.60;64.90;;;;;;4986380;28;20415;-71
2022/03/13 12:19:10;;;;;;;18.35;13.88;;;14.90;62.80;;;;;;4987116;28;20125;-71
2022/03/13 12:21:37;;;;;;;16.35;11.88;;;15.00;62.30;;;;;;4984553;28;20039;-71
2022/03/13 12:24:18;;;;;;;18.13;12.57;;;15.10;60.90;;;;;;4982995;28;20053;-71
2022/03/13 12:26:52;;;;;;;19.98;13.90;;;15.30;59.80;;;;;;4979020;28;20511;-70
2022/03/13 12:29:19;;;;;;;18.02;13.55;;;15.40;59.70;;;;;;4982183;28;20050;-71
2022/03/13 12:31:49;;;;;;;17.58;12.60;;;15.40;59.80;;;;;;4983483;28;20047;-71
2022/03/13 12:34:30;;;;;;;18.83;14.55;;;15.50;59.40;;;;;;4987002;28;20098;-71
2022/03/13 12:37:07;;;;;;;17.88;13.25;;;15.80;57.40;;;;;;4985261;28;20106;-71